Capitol Logistics 2853


CYHZ
Robert L. Stanfield International Airport
Halifax, CA
PANC
Ted Stevens Anchorage International Airport
Anchorage, US

Route Details

Aircraft Information
Primary: Boeing 747-400BCF
Backup: Boeing 777-200LRF
Route Data
Distance: 3022nm
Sched. Duration: 7h 04m
Avg. Duration: 7h 13m (+9m)
Times Flown: 1
Recm'd Route: FRENN PQI VBS MT CHARN 5900N/09000W DUVER VERKI ALSAB NCA19 YZF NCA17 YWY NCA17 ORT J124 GKN J167 JOH WITTI4
Planned Altitude: 34,000ft
Origin Wx: CYHZ 061137Z 13006KT 3SM -RA BR OVC004 12/12 A3008 RMK NS8 VIS W 8 SLP191
Dest. Wx: PANC 061053Z 28005KT 10SM BKN023 BKN026 BKN047 14/11 A3003 RMK AO2 SLP169 T01390106 $
Notes: OPERATED FOR SKYLEASE CARGO

Financial History
Total Freight: 227,360lbs
Average Load: 227,360lbs/flt
Fuel Used: 131,850lbs
Avg. Fuel Used: 131,850lbs/flt
Fuel Expense: $105,480
Avg. Fuel Expense: $105,480
Avg. Fuel Cost: $0.80/lbs
Total Gross Income: $456,994
Pilot Pay: $99
Total Expenses: $49,407
Total Revenue: $301,399
Average Revenue: $456,993.59